Time;durP1;ratioP1;P1;durP2;ratioP2;P2;SDS_P1;SDS_P2;PMS_P1;PMS_P2;Temp;Humidity;BMP_temperature;BMP_pressure;BME280_temperature;BME280_humidity;BME280_pressure;Samples;Min_cycle;Max_cycle;Signal;HPM_P1;HPM_P2
2023/01/18 05:05:06;;;;;;;23.52;12.60;;;;;;;2.89;100.00;97541.53;5558295;32;313416;-87
2023/01/18 05:08:10;;;;;;;23.15;12.18;;;;;;;2.87;100.00;97529.50;5546976;32;34603;-87
2023/01/18 05:11:15;;;;;;;21.65;12.85;;;;;;;2.88;100.00;97568.69;5545561;32;33587;-87
2023/01/18 05:14:18;;;;;;;18.15;10.85;;;;;;;3.02;100.00;97590.53;5546494;32;34545;-87
2023/01/18 05:17:26;;;;;;;15.52;9.95;;;;;;;3.08;100.00;97598.81;5546086;32;33836;-87
2023/01/18 05:20:29;;;;;;;14.90;10.18;;;;;;;3.03;100.00;97608.75;5545693;32;32314;-87
2023/01/18 05:23:31;;;;;;;18.80;11.32;;;;;;;3.03;100.00;97629.72;5545351;32;32514;-87
2023/01/18 05:26:35;;;;;;;14.68;9.40;;;;;;;2.99;100.00;97636.06;5546634;32;33982;-87
2023/01/18 05:29:38;;;;;;;18.30;10.45;;;;;;;2.81;100.00;97628.44;5546690;32;34327;-87
2023/01/18 05:32:41;;;;;;;16.70;10.63;;;;;;;2.79;100.00;97616.37;5548096;32;33919;-87
2023/01/18 05:35:51;;;;;;;17.40;10.88;;;;;;;2.79;100.00;97611.97;5547597;32;34126;-87
2023/01/18 05:38:54;;;;;;;15.05;9.60;;;;;;;2.78;100.00;97618.16;5550490;32;34521;-87
2023/01/18 05:41:57;;;;;;;14.50;9.82;;;;;;;2.94;100.00;97623.28;5546747;32;33763;-87
2023/01/18 05:45:01;;;;;;;15.75;10.07;;;;;;;2.95;100.00;97624.97;5545826;32;34029;-87
2023/01/18 05:48:04;;;;;;;17.67;10.98;;;;;;;2.93;100.00;97632.03;5544391;32;33630;-87
2023/01/18 05:51:09;;;;;;;14.93;9.85;;;;;;;2.93;100.00;97625.97;5545407;32;34585;-87
2023/01/18 05:54:12;;;;;;;13.93;8.50;;;;;;;2.96;100.00;97625.78;5545901;32;33852;-87
2023/01/18 05:57:14;;;;;;;11.63;6.93;;;;;;;2.92;100.00;97619.91;5547205;32;34226;-87
2023/01/18 06:00:18;;;;;;;6.10;4.90;;;;;;;2.93;100.00;97607.66;5546125;32;33647;-87
2023/01/18 06:03:22;;;;;;;6.75;4.97;;;;;;;2.86;100.00;97596.72;5544300;32;33700;-87
2023/01/18 06:06:25;;;;;;;6.85;4.43;;;;;;;2.85;100.00;97592.41;5550855;32;33793;-87
2023/01/18 06:09:28;;;;;;;3.30;3.00;;;;;;;2.83;100.00;97579.41;5548925;32;34668;-87
2023/01/18 06:12:32;;;;;;;2.92;2.40;;;;;;;2.89;100.00;97590.44;5544551;32;34582;-87
2023/01/18 06:15:35;;;;;;;5.72;2.00;;;;;;;2.79;100.00;97605.91;5535486;32;32611;-86
2023/01/18 06:18:38;;;;;;;3.33;1.73;;;;;;;2.88;100.00;97609.72;5531623;32;33392;-86
2023/01/18 06:21:41;;;;;;;2.20;2.00;;;;;;;2.96;100.00;97603.06;5531647;32;33833;-87
2023/01/18 06:24:44;;;;;;;3.10;2.40;;;;;;;2.92;100.00;97604.19;5536141;32;34628;-88
2023/01/18 06:27:46;;;;;;;3.70;2.28;;;;;;;2.64;100.00;97612.91;5526733;32;34123;-88
2023/01/18 06:30:54;;;;;;;4.10;2.25;;;;;;;2.68;100.00;97628.34;5524485;32;34061;-87
2023/01/18 06:33:57;;;;;;;3.67;2.30;;;;;;;2.73;100.00;97632.44;5512507;32;33625;-87
2023/01/18 06:36:59;;;;;;;2.10;1.90;;;;;;;2.73;100.00;97641.16;5514745;32;33607;-85
2023/01/18 06:40:03;;;;;;;2.67;2.17;;;;;;;2.65;100.00;97640.78;5517777;32;33161;-89
2023/01/18 06:43:09;;;;;;;3.80;2.10;;;;;;;2.56;100.00;97634.31;5542064;32;35012;-89
2023/01/18 06:46:11;;;;;;;2.97;2.55;;;;;;;2.39;100.00;97583.03;5534607;32;33859;-90
2023/01/18 06:49:14;;;;;;;4.72;3.12;;;;;;;2.32;100.00;97532.00;5528218;32;34189;-88
2023/01/18 06:52:17;;;;;;;3.53;2.70;;;;;;;2.33;100.00;97567.69;5527472;32;33831;-87
2023/01/18 06:55:20;;;;;;;3.20;2.90;;;;;;;2.32;100.00;97605.25;5553918;32;33936;-86
2023/01/18 06:58:24;;;;;;;3.75;2.62;;;;;;;2.35;100.00;97595.44;5544689;32;34081;-87
2023/01/18 07:01:27;;;;;;;3.85;2.60;;;;;;;2.49;100.00;97625.16;5527479;32;35359;-87
2023/01/18 07:04:40;;;;;;;4.45;2.67;;;;;;;2.53;100.00;97671.16;5533820;32;33641;-86
2023/01/18 07:07:44;;;;;;;4.87;2.97;;;;;;;2.55;100.00;97671.91;5543545;32;34235;-87
2023/01/18 07:10:48;;;;;;;3.67;2.72;;;;;;;2.44;100.00;97667.31;5543305;32;34222;-87
2023/01/18 07:13:52;;;;;;;4.05;3.20;;;;;;;2.43;100.00;97689.19;5548085;32;34848;-87
2023/01/18 07:16:55;;;;;;;4.43;3.30;;;;;;;2.48;100.00;97674.06;5549607;32;34242;-88
2023/01/18 07:19:58;;;;;;;6.47;3.62;;;;;;;2.47;100.00;97668.91;5539783;32;34036;-88
2023/01/18 07:23:01;;;;;;;4.03;3.20;;;;;;;2.55;100.00;97677.13;5556206;32;34064;-87
2023/01/18 07:26:10;;;;;;;6.45;3.95;;;;;;;2.66;100.00;97685.19;5564091;32;34766;-87
2023/01/18 07:29:13;;;;;;;6.87;4.30;;;;;;;2.81;100.00;97696.50;5574312;31;34751;-86
2023/01/18 07:32:16;;;;;;;5.15;3.58;;;;;;;2.79;100.00;97727.19;5559326;31;31273;-86
2023/01/18 07:35:23;;;;;;;4.65;2.50;;;;;;;2.77;100.00;97751.78;5569594;32;35233;-87
2023/01/18 07:38:26;;;;;;;2.25;2.03;;;;;;;2.74;100.00;97759.78;5546210;32;33504;-86
2023/01/18 07:41:29;;;;;;;2.90;2.30;;;;;;;2.62;100.00;97758.75;5557419;32;33884;-85
2023/01/18 07:44:32;;;;;;;2.50;2.03;;;;;;;2.53;100.00;97760.13;5568765;32;33970;-86
2023/01/18 07:47:35;;;;;;;4.80;3.10;;;;;;;2.46;100.00;97764.88;5566992;32;33688;-86
2023/01/18 07:50:38;;;;;;;4.15;3.33;;;;;;;2.62;100.00;97769.22;5563490;32;33957;-86
2023/01/18 07:53:41;;;;;;;5.25;3.55;;;;;;;2.63;100.00;97784.84;5533001;32;34583;-86
2023/01/18 07:56:44;;;;;;;4.37;2.70;;;;;;;2.54;100.00;97799.31;5529222;32;32855;-85
2023/01/18 07:59:47;;;;;;;3.45;2.85;;;;;;;2.53;100.00;97810.69;5541235;32;33556;-83
2023/01/18 08:02:50;;;;;;;3.75;3.00;;;;;;;2.37;100.00;97812.53;5530122;32;33108;-86
2023/01/18 08:05:52;;;;;;;2.47;2.20;;;;;;;2.38;100.00;97822.06;5553140;32;34089;-83
2023/01/18 08:08:55;;;;;;;2.83;2.37;;;;;;;2.46;100.00;97826.84;5548626;32;32385;-86
2023/01/18 08:12:00;;;;;;;3.42;2.20;;;;;;;2.75;100.00;97824.31;5550433;32;34578;-87
2023/01/18 08:15:03;;;;;;;2.53;2.30;;;;;;;2.78;100.00;97839.84;5540997;32;34391;-84
2023/01/18 08:18:07;;;;;;;5.53;2.85;;;;;;;2.79;100.00;97849.38;5536655;32;33887;-84
2023/01/18 08:21:12;;;;;;;2.05;1.90;;;;;;;3.03;100.00;97852.34;5539817;32;34575;-84
2023/01/18 08:24:15;;;;;;;2.00;1.77;;;;;;;3.17;100.00;97859.37;5570977;32;34089;-84
2023/01/18 08:27:17;;;;;;;3.12;1.73;;;;;;;3.22;100.00;97873.03;5572664;32;35135;-84
2023/01/18 08:30:22;;;;;;;1.40;1.30;;;;;;;3.36;100.00;97879.22;5557273;32;34554;-85
2023/01/18 08:33:25;;;;;;;1.40;1.30;;;;;;;3.48;100.00;97890.75;5571651;32;34003;-84
2023/01/18 08:36:27;;;;;;;1.52;1.37;;;;;;;3.66;100.00;97883.53;5571172;32;34225;-85
2023/01/18 08:39:30;;;;;;;2.17;1.75;;;;;;;3.91;100.00;97898.63;5571385;32;34704;-84
2023/01/18 08:42:34;;;;;;;1.50;1.40;;;;;;;3.88;100.00;97887.47;5565874;32;34687;-85
2023/01/18 08:45:37;;;;;;;1.23;1.15;;;;;;;3.89;100.00;97873.41;5532346;32;33947;-85
2023/01/18 08:48:42;;;;;;;1.65;1.33;;;;;;;3.94;100.00;97873.13;5531835;32;34126;-86
2023/01/18 08:51:45;;;;;;;1.30;1.20;;;;;;;3.81;100.00;97888.78;5530280;32;33907;-86
2023/01/18 08:54:48;;;;;;;1.52;1.15;;;;;;;3.82;100.00;97903.59;5534145;32;33720;-84
2023/01/18 08:57:52;;;;;;;1.50;1.40;;;;;;;3.84;100.00;97918.28;5535646;32;33893;-84
2023/01/18 09:00:55;;;;;;;1.23;1.12;;;;;;;3.78;100.00;97916.03;5526660;32;34392;-84
2023/01/18 09:03:58;;;;;;;1.52;1.23;;;;;;;3.80;100.00;97936.91;5536329;32;34012;-85
2023/01/18 09:07:01;;;;;;;1.10;1.00;;;;;;;4.03;100.00;97954.72;5532687;32;33792;-84
2023/01/18 09:10:05;;;;;;;1.62;1.10;;;;;;;4.11;100.00;97964.72;5539533;32;34614;-85
2023/01/18 09:13:09;;;;;;;1.30;1.20;;;;;;;4.18;100.00;97957.34;5525651;32;32650;-84
2023/01/18 09:16:13;;;;;;;1.10;1.10;;;;;;;4.01;100.00;97940.84;5545744;32;34841;-84
2023/01/18 09:19:16;;;;;;;2.22;1.50;;;;;;;3.96;100.00;97963.03;5547615;32;34169;-84
2023/01/18 09:22:21;;;;;;;4.00;1.00;;;;;;;4.11;100.00;97967.34;5543500;32;33913;-83
2023/01/18 09:25:24;;;;;;;4.43;1.20;;;;;;;4.36;100.00;97989.44;5546077;32;34094;-83
2023/01/18 09:28:26;;;;;;;1.33;1.20;;;;;;;4.56;100.00;98005.72;5557277;32;35375;-85
2023/01/18 09:31:29;;;;;;;1.60;1.35;;;;;;;4.80;100.00;98029.59;5554781;32;34184;-86
2023/01/18 09:34:33;;;;;;;1.83;1.70;;;;;;;4.68;100.00;98054.84;5552997;32;32151;-86
2023/01/18 09:37:36;;;;;;;1.52;1.35;;;;;;;4.74;100.00;98064.16;5550220;32;34612;-84
2023/01/18 09:40:42;;;;;;;1.58;1.48;;;;;;;4.67;100.00;98066.28;5539120;32;32573;-84
2023/01/18 09:43:52;;;;;;;1.42;1.25;;;;;;;4.60;100.00;98072.87;5539629;32;32519;-84
2023/01/18 09:47:11;;;;;;;1.37;1.12;;;;;;;4.29;100.00;98078.22;5546353;32;34202;-85
2023/01/18 09:50:16;;;;;;;1.20;1.10;;;;;;;4.01;100.00;98095.63;5546237;32;34042;-84
2023/01/18 09:53:51;;;;;;;1.25;1.12;;;;;;;3.98;100.00;98095.81;5538155;32;34199;-84
2023/01/18 09:57:06;;;;;;;1.27;1.17;;;;;;;4.13;100.00;98093.22;5548252;32;33418;-84
2023/01/18 10:00:26;;;;;;;1.52;1.42;;;;;;;4.13;100.00;98096.66;5549768;32;32398;-85
2023/01/18 10:03:45;;;;;;;2.33;1.30;;;;;;;4.11;100.00;98103.81;5549634;32;34525;-90
2023/01/18 10:07:16;;;;;;;1.67;1.45;;;;;;;4.12;100.00;98104.66;5547725;32;34175;-85
2023/01/18 10:10:19;;;;;;;2.08;1.30;;;;;;;4.23;100.00;98114.50;5542813;32;35080;-85
2023/01/18 10:14:04;;;;;;;1.60;1.50;;;;;;;4.21;100.00;98119.00;5550107;32;34158;-85
2023/01/18 10:17:16;;;;;;;2.35;1.10;;;;;;;4.59;100.00;98124.53;5542364;32;34386;-88
2023/01/18 10:20:34;;;;;;;1.87;1.48;;;;;;;4.78;100.00;98138.34;5590372;26;33900;-89
2023/01/18 10:23:47;;;;;;;1.52;1.42;;;;;;;5.07;100.00;98128.63;5544917;32;34133;-88
2023/01/18 10:26:55;;;;;;;1.58;1.40;;;;;;;5.05;100.00;98148.06;5554427;32;34920;-86
2023/01/18 10:30:19;;;;;;;1.70;1.50;;;;;;;5.17;100.00;98164.84;5541648;32;34863;-85
2023/01/18 10:33:29;;;;;;;1.65;1.55;;;;;;;5.05;100.00;98184.84;5536318;32;33591;-90
2023/01/18 10:36:40;;;;;;;2.08;1.90;;;;;;;5.07;100.00;98183.81;5523918;32;32842;-89
2023/01/18 10:39:49;;;;;;;2.53;1.77;;;;;;;4.99;100.00;98172.94;5553689;32;34041;-87
2023/01/18 10:42:58;;;;;;;3.10;2.25;;;;;;;5.36;100.00;98173.25;5551165;32;33780;-87
2023/01/18 10:46:01;;;;;;;1.73;1.62;;;;;;;5.74;100.00;98179.59;5538089;32;33685;-87
2023/01/18 10:49:07;;;;;;;1.90;1.80;;;;;;;6.01;100.00;98177.91;5531220;32;34872;-89
2023/01/18 10:52:17;;;;;;;2.22;2.03;;;;;;;6.05;100.00;98198.69;5533799;32;34931;-88
2023/01/18 10:55:20;;;;;;;3.92;2.20;;;;;;;6.36;100.00;98203.69;5534982;32;34318;-88
2023/01/18 10:58:26;;;;;;;2.17;1.98;;;;;;;6.57;100.00;98214.56;5532872;32;34145;-89
2023/01/18 11:01:33;;;;;;;2.30;2.03;;;;;;;6.53;100.00;98213.09;5539708;32;33915;-88
2023/01/18 11:04:39;;;;;;;2.50;2.30;;;;;;;6.45;100.00;98224.13;5546391;32;34426;-88
2023/01/18 11:07:42;;;;;;;2.65;2.33;;;;;;;6.25;100.00;98230.75;5540869;32;34646;-88
2023/01/18 11:10:45;;;;;;;2.70;2.50;;;;;;;5.90;100.00;98247.03;5539765;32;34494;-87
2023/01/18 11:13:48;;;;;;;5.60;2.70;;;;;;;5.79;100.00;98247.75;5528768;32;34438;-88
2023/01/18 11:17:09;;;;;;;3.00;2.70;;;;;;;5.81;100.00;98240.56;5535189;32;33666;-88
2023/01/18 11:20:47;;;;;;;3.45;2.67;;;;;;;5.79;100.00;98242.47;5528123;32;33945;-88
2023/01/18 11:23:51;;;;;;;3.42;2.62;;;;;;;5.63;100.00;98247.87;5546015;32;34170;-89
2023/01/18 11:27:00;;;;;;;3.10;2.80;;;;;;;5.60;100.00;98262.06;5525441;32;32345;-88
2023/01/18 11:30:03;;;;;;;4.53;2.80;;;;;;;5.65;100.00;98267.03;5543425;32;35273;-93
2023/01/18 11:33:16;;;;;;;4.05;3.05;;;;;;;5.82;100.00;98270.37;5524358;32;32937;-93
2023/01/18 11:36:32;;;;;;;3.42;2.83;;;;;;;5.92;100.00;98281.97;5533862;32;32418;-89
2023/01/18 11:39:36;;;;;;;4.28;2.90;;;;;;;6.22;100.00;98291.50;5533689;32;33703;-87
2023/01/18 11:42:39;;;;;;;3.95;3.22;;;;;;;6.70;100.00;98282.25;5521226;32;32740;-88
2023/01/18 11:45:52;;;;;;;4.22;3.40;;;;;;;8.79;100.00;98286.87;5536436;32;33994;-88
2023/01/18 11:49:23;;;;;;;4.00;3.30;;;;;;;9.75;100.00;98294.50;5537427;32;33740;-90
2023/01/18 11:52:46;;;;;;;3.70;3.28;;;;;;;9.21;100.00;98290.78;5537312;32;33863;-89
2023/01/18 11:56:04;;;;;;;4.05;3.00;;;;;;;8.42;100.00;98301.03;5527052;32;33219;-89
2023/01/18 11:59:28;;;;;;;3.33;2.97;;;;;;;7.92;100.00;98309.91;5543179;32;34577;-88
2023/01/18 12:02:57;;;;;;;4.43;2.97;;;;;;;7.92;100.00;98322.25;5541227;32;34002;-88
2023/01/18 12:06:26;;;;;;;3.42;3.00;;;;;;;8.06;100.00;98329.16;5542134;32;34260;-92
2023/01/18 12:09:28;;;;;;;3.75;3.05;;;;;;;8.38;100.00;98335.69;5510809;32;33686;-88
2023/01/18 12:12:44;;;;;;;3.20;2.90;;;;;;;8.27;100.00;98345.25;5522169;32;33796;-88
2023/01/18 12:16:09;;;;;;;2.83;2.50;;;;;;;8.06;100.00;98353.75;5522439;32;33529;-88
2023/01/18 12:19:43;;;;;;;3.20;2.90;;;;;;;7.74;100.00;98359.53;5547423;32;34811;-88
2023/01/18 12:23:10;;;;;;;4.28;2.95;;;;;;;7.45;100.00;98365.09;5535394;32;34678;-88
2023/01/18 12:26:45;;;;;;;3.87;2.80;;;;;;;7.41;100.00;98369.69;5533738;32;34562;-89
2023/01/18 12:29:48;;;;;;;3.20;2.90;;;;;;;7.59;100.00;98381.75;5551370;32;35301;-91
2023/01/18 12:33:00;;;;;;;3.70;2.60;;;;;;;7.51;100.00;98390.19;5533066;32;33874;-90
2023/01/18 12:36:28;;;;;;;2.97;2.45;;;;;;;7.57;100.00;98394.19;5555807;32;33904;-87
2023/01/18 12:39:44;;;;;;;4.15;2.90;;;;;;;7.94;100.00;98391.59;5542522;32;33948;-88
2023/01/18 12:43:07;;;;;;;3.47;2.65;;;;;;;8.03;100.00;98400.66;5520717;32;33035;-88
2023/01/18 12:46:20;;;;;;;2.90;2.60;;;;;;;7.48;100.00;98403.56;5516813;32;32948;-88
2023/01/18 12:49:27;;;;;;;3.03;2.47;;;;;;;8.00;100.00;98411.47;5521635;32;33006;-87
2023/01/18 12:52:40;;;;;;;2.70;2.50;;;;;;;8.10;100.00;98423.06;5542742;32;33139;-87
2023/01/18 12:55:48;;;;;;;3.78;2.75;;;;;;;8.02;100.00;98414.84;5560735;32;34411;-88
2023/01/18 12:58:57;;;;;;;2.60;2.35;;;;;;;7.72;100.00;98416.88;5552464;32;35672;-87
2023/01/18 13:02:09;;;;;;;3.20;2.50;;;;;;;7.74;100.00;98422.87;5561877;32;34328;-87
2023/01/18 13:05:33;;;;;;;3.25;2.47;;;;;;;7.97;100.00;98431.00;5553183;32;34476;-88
2023/01/18 13:09:18;;;;;;;3.12;2.10;;;;;;;7.89;100.00;98436.00;5551019;32;34436;-89
2023/01/18 13:12:22;;;;;;;3.03;2.22;;;;;;;7.84;100.00;98453.94;5452014;32;34273;-88
2023/01/18 13:15:25;;;;;;;5.28;2.42;;;;;;;7.88;100.00;98452.75;5458851;32;34859;-89
2023/01/18 13:22:33;;;;;;;2.83;2.20;;;;;;;7.73;100.00;98463.44;5485525;32;33984;-88
2023/01/18 13:25:39;;;;;;;2.03;1.83;;;;;;;7.41;100.00;98469.94;5489336;32;33866;-87
2023/01/18 13:28:42;;;;;;;2.75;2.00;;;;;;;7.32;100.00;98482.91;5489216;32;33481;-86
2023/01/18 13:31:46;;;;;;;3.35;2.20;;;;;;;7.07;100.00;98489.81;5488417;32;34669;-86
2023/01/18 13:35:13;;;;;;;2.97;2.20;;;;;;;7.06;100.00;98494.25;5487667;32;33474;-87
2023/01/18 13:38:26;;;;;;;2.47;2.20;;;;;;;7.05;100.00;98502.25;5483838;32;34921;-86
2023/01/18 13:41:58;;;;;;;3.15;2.70;;;;;;;6.99;100.00;98501.69;5471475;32;34462;-86
2023/01/18 13:45:16;;;;;;;4.62;2.50;;;;;;;6.96;100.00;98496.62;5488243;32;34096;-87
2023/01/18 13:48:53;;;;;;;3.10;2.60;;;;;;;7.01;100.00;98504.25;5529928;32;33552;-86
2023/01/18 13:51:57;;;;;;;4.43;2.70;;;;;;;6.86;100.00;98506.94;5520625;32;34047;-87
2023/01/18 13:55:04;;;;;;;4.37;2.80;;;;;;;6.90;100.00;98493.53;5515743;32;34008;-87
2023/01/18 13:58:26;;;;;;;3.65;3.03;;;;;;;6.77;100.00;98496.97;5541262;32;34827;-87
2023/01/18 14:01:32;;;;;;;4.45;3.15;;;;;;;6.99;100.00;98496.44;5514396;32;33822;-87
2023/01/18 14:04:35;;;;;;;3.30;2.92;;;;;;;6.96;100.00;98504.56;5535936;32;34836;-87
2023/01/18 14:07:45;;;;;;;5.45;3.33;;;;;;;6.96;100.00;98514.25;5525179;32;34325;-86
2023/01/18 14:10:53;;;;;;;4.43;3.53;;;;;;;6.80;100.00;98517.00;5524208;32;33540;-87
2023/01/18 14:14:02;;;;;;;4.87;3.58;;;;;;;6.87;100.00;98523.56;5524310;32;34317;-88
2023/01/18 14:17:14;;;;;;;6.32;3.45;;;;;;;6.70;100.00;98525.50;5516291;32;33600;-87
2023/01/18 14:20:43;;;;;;;7.30;3.55;;;;;;;6.63;100.00;98532.09;5519838;32;33850;-88
2023/01/18 14:24:05;;;;;;;4.47;3.40;;;;;;;6.69;100.00;98538.78;5544169;26;34775;-88
2023/01/18 14:27:16;;;;;;;5.45;3.72;;;;;;;6.55;100.00;98545.75;5577942;31;32402;-87
2023/01/18 14:30:29;;;;;;;4.32;3.62;;;;;;;6.50;100.00;98555.75;5576266;31;34363;-89
2023/01/18 14:33:37;;;;;;;5.75;3.83;;;;;;;6.41;100.00;98557.16;5570378;31;33704;-88
2023/01/18 14:36:40;;;;;;;4.72;3.50;;;;;;;6.31;100.00;98554.25;5564574;31;33716;-87
2023/01/18 14:39:43;;;;;;;3.78;3.28;;;;;;;6.35;100.00;98565.44;5577091;31;33618;-86
2023/01/18 14:42:59;;;;;;;3.55;3.20;;;;;;;6.14;100.00;98568.44;5578956;31;34403;-87
2023/01/18 14:46:10;;;;;;;6.22;3.50;;;;;;;6.06;100.00;98563.66;5572522;31;32526;-87
2023/01/18 14:49:18;;;;;;;4.18;3.25;;;;;;;5.90;100.00;98574.19;5578963;31;36114;-88
2023/01/18 14:52:26;;;;;;;4.22;3.30;;;;;;;5.87;100.00;98584.06;5584394;31;34326;-87
2023/01/18 14:55:33;;;;;;;3.67;3.33;;;;;;;5.85;100.00;98581.53;5570229;31;32650;-87
2023/01/18 14:58:43;;;;;;;5.22;3.60;;;;;;;5.81;100.00;98580.00;5568922;31;32925;-88
2023/01/18 15:02:01;;;;;;;6.33;4.30;;;;;;;5.80;100.00;98581.78;5580659;31;34193;-87
2023/01/18 15:05:11;;;;;;;7.82;3.95;;;;;;;5.75;100.00;98580.38;5574975;31;34143;-87
2023/01/18 15:08:15;;;;;;;6.85;4.15;;;;;;;5.67;100.00;98580.81;5572700;31;35409;-91
2023/01/18 15:11:25;;;;;;;4.22;3.83;;;;;;;5.58;100.00;98573.47;5571676;31;34029;-92
2023/01/18 15:14:32;;;;;;;5.82;4.20;;;;;;;5.46;100.00;98578.50;5579553;31;33579;-88
2023/01/18 15:17:36;;;;;;;7.93;4.25;;;;;;;5.45;100.00;98574.19;5582854;31;34056;-88
2023/01/18 15:20:50;;;;;;;5.68;4.28;;;;;;;5.46;100.00;98564.50;5580187;31;34422;-88
2023/01/18 15:24:07;;;;;;;7.40;4.20;;;;;;;5.36;100.00;98565.03;5570038;31;33429;-87
2023/01/18 15:27:19;;;;;;;7.60;4.85;;;;;;;5.42;100.00;98555.09;5571386;31;34337;-88
2023/01/18 15:30:23;;;;;;;10.25;5.07;;;;;;;5.21;100.00;98550.12;5583532;31;34662;-87
2023/01/18 15:33:26;;;;;;;8.18;4.72;;;;;;;5.14;100.00;98557.53;5583847;31;34310;-88
2023/01/18 15:36:29;;;;;;;8.82;4.80;;;;;;;5.11;100.00;98570.81;5589645;31;34599;-86
2023/01/18 15:39:32;;;;;;;6.68;4.75;;;;;;;5.00;100.00;98568.81;5585664;31;35324;-87
2023/01/18 15:42:37;;;;;;;8.70;5.50;;;;;;;4.91;100.00;98569.31;5578876;31;34080;-87
2023/01/18 15:45:48;;;;;;;7.18;5.25;;;;;;;4.81;100.00;98582.97;5584762;31;33704;-87
2023/01/18 15:48:56;;;;;;;14.25;6.95;;;;;;;4.82;100.00;98605.66;5579472;31;34849;-87
2023/01/18 15:51:59;;;;;;;10.23;6.50;;;;;;;5.06;100.00;98604.41;5569826;31;32574;-87
2023/01/18 15:55:05;;;;;;;10.05;6.62;;;;;;;4.93;100.00;98628.72;5590264;31;34380;-87
2023/01/18 15:58:25;;;;;;;9.48;6.25;;;;;;;4.84;100.00;98637.13;5594806;31;35480;-88
2023/01/18 16:01:34;;;;;;;8.85;6.05;;;;;;;4.88;100.00;98627.28;5563498;31;32412;-88
2023/01/18 16:04:39;;;;;;;9.88;6.65;;;;;;;4.80;100.00;98633.81;5571836;31;33968;-88
2023/01/18 16:07:41;;;;;;;8.60;6.40;;;;;;;4.77;100.00;98638.38;5566878;31;32630;-88
2023/01/18 16:10:52;;;;;;;11.15;6.43;;;;;;;4.74;100.00;98639.41;5580448;31;33706;-88
2023/01/18 16:14:01;;;;;;;10.57;7.03;;;;;;;4.74;100.00;98634.16;5553697;31;34332;-87
2023/01/18 16:17:14;;;;;;;9.88;6.80;;;;;;;4.75;100.00;98643.72;5570351;31;33634;-92
2023/01/18 16:20:17;;;;;;;8.93;6.28;;;;;;;4.80;100.00;98653.97;5568404;32;34666;-88
2023/01/18 16:23:20;;;;;;;9.95;7.03;;;;;;;4.81;100.00;98663.53;5571700;31;34024;-88
2023/01/18 16:26:29;;;;;;;11.15;7.18;;;;;;;4.84;100.00;98663.41;5556498;32;34225;-88
2023/01/18 16:29:54;;;;;;;9.35;6.95;;;;;;;4.91;100.00;98667.37;5573845;32;34065;-88
2023/01/18 16:33:08;;;;;;;11.57;8.40;;;;;;;4.90;100.00;98670.94;5568165;32;33899;-88
2023/01/18 16:36:17;;;;;;;13.77;7.72;;;;;;;4.85;100.00;98655.44;5567896;32;33543;-88
2023/01/18 16:39:20;;;;;;;12.23;7.43;;;;;;;4.96;100.00;98654.84;5553539;32;33028;-88
2023/01/18 16:42:23;;;;;;;14.18;7.35;;;;;;;4.99;100.00;98659.09;5567432;32;33620;-88
2023/01/18 16:45:39;;;;;;;12.50;8.45;;;;;;;4.99;100.00;98649.41;5553900;32;33473;-88
2023/01/18 16:48:42;;;;;;;15.70;8.00;;;;;;;5.03;100.00;98662.41;5569055;32;34783;-87
2023/01/18 16:51:46;;;;;;;16.65;9.20;;;;;;;5.00;100.00;98652.91;5553827;32;34000;-88
